Time;durP1;ratioP1;P1;durP2;ratioP2;P2;SDS_P1;SDS_P2;PMS_P1;PMS_P2;Temp;Humidity;BMP_temperature;BMP_pressure;BME280_temperature;BME280_humidity;BME280_pressure;Samples;Min_cycle;Max_cycle;Signal;HPM_P1;HPM_P2
2022/03/31 00:02:16;;;;;;;54.27;22.90;;;10.00;40.60;;;;;;5066654;28;20556;-55
2022/03/31 00:04:43;;;;;;;58.60;24.10;;;10.00;40.60;;;;;;5065443;28;20572;-53
2022/03/31 00:07:10;;;;;;;54.27;21.37;;;10.00;40.80;;;;;;5065589;28;20593;-55
2022/03/31 00:09:38;;;;;;;55.97;22.03;;;9.90;40.80;;;;;;5063303;28;20484;-54
2022/03/31 00:12:06;;;;;;;55.43;21.80;;;10.00;40.80;;;;;;5065603;28;20558;-55
2022/03/31 00:14:33;;;;;;;54.47;20.50;;;10.00;40.50;;;;;;5064443;28;20463;-55
2022/03/31 00:17:00;;;;;;;54.27;21.30;;;10.00;40.60;;;;;;5066399;28;20572;-55
2022/03/31 00:19:27;;;;;;;61.30;24.20;;;10.00;40.70;;;;;;5064358;28;20462;-55
2022/03/31 00:32:32;;;;;;;55.37;21.20;;;9.90;40.80;;;;;;5065406;28;20487;-54
2022/03/31 00:34:59;;;;;;;55.63;22.00;;;9.90;41.00;;;;;;5064172;28;20535;-55
2022/03/31 00:37:38;;;;;;;55.70;23.03;;;9.90;40.60;;;;;;5065157;28;20481;-55
2022/03/31 00:40:08;;;;;;;58.47;22.70;;;9.90;41.10;;;;;;5063974;28;20553;-55
2022/03/31 00:42:40;;;;;;;56.60;21.13;;;9.90;40.70;;;;;;5066460;28;20453;-55
2022/03/31 00:45:13;;;;;;;58.60;22.70;;;9.80;40.80;;;;;;5065442;28;20477;-55
2022/03/31 00:47:41;;;;;;;61.03;25.50;;;9.80;41.30;;;;;;5064633;28;20491;-54
2022/03/31 00:50:09;;;;;;;59.83;23.80;;;9.80;41.40;;;;;;5065503;28;21006;-54
2022/03/31 00:52:37;;;;;;;63.87;24.57;;;9.80;41.10;;;;;;5064095;28;21178;-56
2022/03/31 00:55:04;;;;;;;63.50;23.80;;;9.70;41.20;;;;;;5063738;28;20466;-56
2022/03/31 00:57:32;;;;;;;62.30;24.67;;;9.70;41.10;;;;;;5063689;28;20572;-55
2022/03/31 00:59:59;;;;;;;65.13;24.50;;;9.70;40.90;;;;;;5064235;28;21035;-55
2022/03/31 01:02:30;;;;;;;63.33;24.47;;;9.60;41.20;;;;;;5063037;28;20499;-55
2022/03/31 01:05:00;;;;;;;61.30;24.63;;;9.60;41.10;;;;;;5063868;28;20488;-56
2022/03/31 01:07:27;;;;;;;60.23;24.53;;;9.60;41.30;;;;;;5065414;28;20485;-53
2022/03/31 01:09:54;;;;;;;67.53;27.17;;;9.60;41.30;;;;;;5061319;28;20473;-55
2022/03/31 01:12:22;;;;;;;60.53;23.90;;;9.60;41.10;;;;;;5065477;28;20461;-54
2022/03/31 01:14:49;;;;;;;61.17;25.00;;;9.60;41.20;;;;;;5063547;28;20540;-55
2022/03/31 01:17:16;;;;;;;64.00;25.40;;;9.60;41.20;;;;;;5061463;28;20485;-54
2022/03/31 01:19:43;;;;;;;61.13;25.07;;;9.60;41.20;;;;;;5062569;28;20576;-54
2022/03/31 01:22:11;;;;;;;62.77;24.27;;;9.60;41.00;;;;;;5065216;28;20573;-53
2022/03/31 01:24:40;;;;;;;57.07;22.07;;;9.50;41.10;;;;;;5064145;28;20580;-55
2022/03/31 01:27:11;;;;;;;59.07;22.70;;;9.50;41.10;;;;;;5065279;28;20576;-55
2022/03/31 01:29:38;;;;;;;56.97;22.00;;;9.50;41.00;;;;;;5065072;28;20457;-54
2022/03/31 01:32:06;;;;;;;57.70;21.27;;;9.40;40.90;;;;;;5062509;28;20595;-55
2022/03/31 01:34:32;;;;;;;58.57;21.97;;;9.40;41.00;;;;;;5060490;28;20556;-54
2022/03/31 01:36:59;;;;;;;60.10;24.50;;;9.30;41.20;;;;;;5063370;28;20492;-55
2022/03/31 01:39:26;;;;;;;59.23;22.20;;;9.20;41.00;;;;;;5065635;28;20553;-54
2022/03/31 01:41:54;;;;;;;60.00;23.00;;;9.20;41.00;;;;;;5063478;28;20465;-55
2022/03/31 01:44:21;;;;;;;58.90;24.17;;;9.20;41.10;;;;;;5062767;28;20551;-55
2022/03/31 01:46:48;;;;;;;63.07;25.27;;;9.20;40.90;;;;;;5065261;28;20487;-55
2022/03/31 01:49:15;;;;;;;63.27;25.40;;;9.20;41.20;;;;;;5063780;28;20476;-56
2022/03/31 01:51:42;;;;;;;59.97;22.97;;;9.20;41.20;;;;;;5064255;28;20767;-56
2022/03/31 01:54:09;;;;;;;62.10;24.67;;;9.20;41.10;;;;;;5064332;28;20877;-55
2022/03/31 01:56:36;;;;;;;58.30;22.80;;;9.20;41.10;;;;;;5062903;28;20545;-55
2022/03/31 01:59:05;;;;;;;60.87;24.37;;;9.20;41.00;;;;;;5064585;28;20564;-55
2022/03/31 02:01:32;;;;;;;62.73;23.93;;;9.20;40.90;;;;;;5060001;28;20468;-56
2022/03/31 02:03:59;;;;;;;58.90;23.90;;;9.20;41.00;;;;;;5062326;28;20594;-55
2022/03/31 02:06:26;;;;;;;62.10;24.97;;;9.20;41.00;;;;;;5061549;28;20564;-55
2022/03/31 02:08:55;;;;;;;61.60;23.50;;;9.30;41.00;;;;;;5064508;28;20512;-56
2022/03/31 02:11:22;;;;;;;61.70;22.87;;;9.30;40.90;;;;;;5063329;28;20527;-55
2022/03/31 02:13:48;;;;;;;60.07;22.50;;;9.20;40.80;;;;;;5065914;28;20915;-55
2022/03/31 02:16:17;;;;;;;61.17;23.17;;;9.30;41.00;;;;;;5062744;28;20536;-55
2022/03/31 02:18:43;;;;;;;62.73;24.97;;;9.30;41.10;;;;;;5065650;28;20568;-55
2022/03/31 02:21:12;;;;;;;61.60;24.50;;;9.30;41.00;;;;;;5063175;28;20544;-56
2022/03/31 02:23:39;;;;;;;64.83;24.77;;;9.30;41.00;;;;;;5067636;28;20457;-55
2022/03/31 02:26:06;;;;;;;61.53;26.40;;;9.30;40.80;;;;;;5064251;28;20488;-56
2022/03/31 02:28:33;;;;;;;66.70;25.80;;;9.30;40.80;;;;;;5069348;28;20548;-53
2022/03/31 02:31:00;;;;;;;64.93;25.90;;;9.30;41.00;;;;;;5064328;28;20476;-56
2022/03/31 02:33:28;;;;;;;57.83;22.87;;;9.20;40.80;;;;;;5066771;28;20453;-56
2022/03/31 02:35:56;;;;;;;64.20;24.70;;;9.20;41.00;;;;;;5066409;28;20471;-55
2022/03/31 02:38:23;;;;;;;62.43;24.50;;;9.20;40.90;;;;;;5070080;28;20852;-54
2022/03/31 02:41:17;;;;;;;65.20;25.00;;;9.30;41.00;;;;;;5066021;28;20473;-54
2022/03/31 02:43:44;;;;;;;63.13;23.03;;;9.30;41.20;;;;;;5066940;28;20971;-55
2022/03/31 02:46:11;;;;;;;61.47;24.57;;;9.30;41.00;;;;;;5066060;28;20496;-55
2022/03/31 02:48:39;;;;;;;61.70;24.17;;;9.30;40.90;;;;;;5068222;28;20472;-54
2022/03/31 02:51:06;;;;;;;58.60;23.07;;;9.30;40.90;;;;;;5067923;28;20465;-55
2022/03/31 02:56:17;;;;;;;58.80;23.10;;;9.30;40.50;;;;;;5063797;28;20444;-55
2022/03/31 02:58:44;;;;;;;57.67;22.93;;;9.30;40.50;;;;;;5068126;28;21155;-55
2022/03/31 03:01:11;;;;;;;58.30;22.20;;;9.30;40.50;;;;;;5066258;28;20485;-54
2022/03/31 03:03:42;;;;;;;62.53;24.63;;;9.30;40.50;;;;;;5068233;28;20465;-54
2022/03/31 03:06:09;;;;;;;57.77;23.60;;;9.30;40.40;;;;;;5064732;28;20893;-55
2022/03/31 03:08:36;;;;;;;61.13;23.07;;;9.30;40.50;;;;;;5067751;28;20505;-55
2022/03/31 03:11:03;;;;;;;58.33;23.53;;;9.30;40.20;;;;;;5058753;28;20516;-55
2022/03/31 03:13:30;;;;;;;60.57;24.43;;;9.30;40.30;;;;;;5057196;28;20897;-52
2022/03/31 03:15:56;;;;;;;58.97;22.60;;;9.30;40.20;;;;;;5057256;28;20453;-55
2022/03/31 03:18:23;;;;;;;58.80;22.83;;;9.30;40.30;;;;;;5065433;28;20473;-55
2022/03/31 03:20:51;;;;;;;56.67;22.50;;;9.30;40.30;;;;;;5064845;28;20981;-54
2022/03/31 03:23:18;;;;;;;58.57;23.93;;;9.30;40.20;;;;;;5068171;28;20931;-55
2022/03/31 03:25:45;;;;;;;59.00;24.30;;;9.30;40.40;;;;;;5060897;28;20478;-55
2022/03/31 03:28:11;;;;;;;57.40;22.27;;;9.20;40.20;;;;;;5069395;28;20493;-55
2022/03/31 03:30:38;;;;;;;62.10;23.70;;;9.30;40.10;;;;;;5063979;28;20500;-56
2022/03/31 03:33:05;;;;;;;59.60;23.27;;;9.20;40.30;;;;;;5063959;28;20465;-56
2022/03/31 03:35:32;;;;;;;58.07;23.27;;;9.30;40.20;;;;;;5065788;28;20454;-57
2022/03/31 03:38:00;;;;;;;60.43;24.10;;;9.20;40.40;;;;;;5059255;28;20485;-55
2022/03/31 03:40:29;;;;;;;63.00;24.50;;;9.20;40.40;;;;;;5059261;28;20870;-53
2022/03/31 03:42:56;;;;;;;61.70;24.93;;;9.20;40.20;;;;;;5062810;28;20465;-55
2022/03/31 03:45:23;;;;;;;60.40;23.43;;;9.20;40.20;;;;;;5057416;28;20465;-54
2022/03/31 03:47:51;;;;;;;62.03;24.40;;;9.20;40.40;;;;;;5055280;28;20584;-56
2022/03/31 03:50:20;;;;;;;56.43;22.17;;;9.20;40.40;;;;;;5066235;28;21025;-56
2022/03/31 03:52:47;;;;;;;61.17;24.47;;;9.10;40.70;;;;;;5059803;28;20465;-56
2022/03/31 03:55:16;;;;;;;63.33;25.00;;;9.10;40.90;;;;;;5066319;28;20561;-56
2022/03/31 03:57:43;;;;;;;59.90;23.37;;;9.00;40.90;;;;;;5065218;28;20889;-55
2022/03/31 04:00:11;;;;;;;65.00;26.30;;;9.00;41.10;;;;;;5064095;28;20458;-54
2022/03/31 04:02:38;;;;;;;66.77;25.73;;;8.90;41.60;;;;;;5057266;28;20477;-56
2022/03/31 04:05:06;;;;;;;64.30;25.23;;;8.90;41.60;;;;;;5060662;28;20465;-56
2022/03/31 04:07:33;;;;;;;60.90;24.53;;;8.90;41.70;;;;;;5062269;28;20855;-56
2022/03/31 04:10:00;;;;;;;62.00;24.03;;;8.80;41.90;;;;;;5067665;28;20461;-58
2022/03/31 04:12:28;;;;;;;67.60;25.57;;;8.80;41.90;;;;;;5061875;28;20465;-58
2022/03/31 04:14:54;;;;;;;66.93;27.87;;;8.80;41.90;;;;;;5058861;28;20470;-57
2022/03/31 04:17:21;;;;;;;62.17;25.80;;;8.80;42.00;;;;;;5057745;28;20485;-59
2022/03/31 04:19:48;;;;;;;60.70;25.80;;;8.80;42.00;;;;;;5059983;28;20904;-58
2022/03/31 04:22:15;;;;;;;62.40;25.73;;;8.80;41.70;;;;;;5055472;28;20531;-59
2022/03/31 04:24:41;;;;;;;67.60;27.70;;;8.80;41.60;;;;;;5057320;28;20462;-59
2022/03/31 04:27:08;;;;;;;66.37;27.80;;;8.90;41.60;;;;;;5051650;28;20497;-58
2022/03/31 04:29:36;;;;;;;64.03;26.80;;;8.90;41.50;;;;;;5059404;28;20911;-58
2022/03/31 04:32:03;;;;;;;63.87;26.17;;;8.90;41.90;;;;;;5061697;28;20473;-57
2022/03/31 04:34:30;;;;;;;62.83;25.50;;;8.90;41.70;;;;;;5061772;28;20469;-58
2022/03/31 04:36:57;;;;;;;66.40;28.33;;;9.00;41.60;;;;;;5054609;28;20485;-59
2022/03/31 04:39:24;;;;;;;68.20;25.83;;;9.00;41.60;;;;;;5054617;28;20545;-59
2022/03/31 04:41:50;;;;;;;64.83;26.30;;;9.00;42.10;;;;;;5052988;28;20481;-59
2022/03/31 04:44:17;;;;;;;65.70;28.20;;;9.00;41.20;;;;;;5056753;28;20857;-57
2022/03/31 04:46:45;;;;;;;62.90;26.47;;;9.00;41.10;;;;;;5051541;28;20577;-55
2022/03/31 04:49:13;;;;;;;68.50;27.20;;;9.00;41.20;;;;;;5059591;28;20465;-56
2022/03/31 04:51:39;;;;;;;66.30;27.67;;;9.00;41.00;;;;;;5059015;28;20473;-59
2022/03/31 04:54:06;;;;;;;65.37;26.10;;;9.00;41.10;;;;;;5059961;28;20457;-59
2022/03/31 04:56:33;;;;;;;64.70;26.53;;;9.00;41.30;;;;;;5064954;28;20460;-59
2022/03/31 04:59:00;;;;;;;70.97;29.53;;;9.00;41.20;;;;;;5064901;28;20458;-60
2022/03/31 05:01:26;;;;;;;63.70;25.37;;;9.00;41.20;;;;;;5059820;28;20468;-57
2022/03/31 05:03:55;;;;;;;69.40;27.00;;;9.10;41.10;;;;;;5066922;28;20460;-57
2022/03/31 05:06:22;;;;;;;66.20;26.90;;;9.10;41.20;;;;;;5061615;28;20485;-59
2022/03/31 05:08:49;;;;;;;64.50;27.13;;;9.10;41.20;;;;;;5064832;28;20504;-57
2022/03/31 05:11:15;;;;;;;69.30;27.67;;;9.10;41.20;;;;;;5064993;28;20465;-56
2022/03/31 05:13:42;;;;;;;71.37;29.30;;;9.10;41.30;;;;;;5060416;28;20465;-62
2022/03/31 05:16:09;;;;;;;70.37;27.57;;;9.10;41.30;;;;;;5052856;28;20464;-56
2022/03/31 05:18:35;;;;;;;72.37;31.13;;;9.10;41.40;;;;;;5057323;28;20565;-56
2022/03/31 05:21:04;;;;;;;81.57;33.17;;;9.10;41.40;;;;;;5066731;28;20469;-58
2022/03/31 05:23:31;;;;;;;72.53;30.10;;;9.10;42.20;;;;;;5067696;28;20478;-58
2022/03/31 05:25:57;;;;;;;71.00;28.40;;;9.10;41.30;;;;;;5066672;28;20457;-58
2022/03/31 05:28:24;;;;;;;66.47;26.77;;;9.10;41.50;;;;;;5067860;28;20635;-57
2022/03/31 05:30:51;;;;;;;66.03;27.83;;;9.10;41.60;;;;;;5074084;28;20473;-57
2022/03/31 05:33:19;;;;;;;67.23;28.03;;;9.10;41.60;;;;;;5054625;28;20472;-59
2022/03/31 05:35:46;;;;;;;65.67;27.33;;;9.10;41.60;;;;;;5056033;28;20462;-58
2022/03/31 05:38:14;;;;;;;71.00;28.60;;;9.10;41.40;;;;;;5054370;28;20503;-59
2022/03/31 05:40:41;;;;;;;70.53;30.67;;;9.20;41.70;;;;;;5061945;28;20526;-59
2022/03/31 05:43:08;;;;;;;76.20;30.83;;;9.20;41.60;;;;;;5056679;28;20457;-59
2022/03/31 05:45:35;;;;;;;76.30;30.43;;;9.10;41.40;;;;;;5065163;28;20464;-59
2022/03/31 05:48:01;;;;;;;73.67;29.27;;;9.10;41.60;;;;;;5059800;28;20485;-59
2022/03/31 05:50:28;;;;;;;75.50;30.50;;;9.10;41.60;;;;;;5054203;28;20473;-57
2022/03/31 05:52:55;;;;;;;72.10;29.63;;;9.10;41.70;;;;;;5063030;28;20461;-59
2022/03/31 05:55:23;;;;;;;73.40;30.13;;;9.10;41.70;;;;;;5065651;28;20862;-58
2022/03/31 05:57:50;;;;;;;74.70;32.47;;;9.10;42.00;;;;;;5052678;28;20478;-58
2022/03/31 06:00:19;;;;;;;74.40;31.10;;;9.10;41.80;;;;;;5054574;28;20468;-58
2022/03/31 06:02:47;;;;;;;74.50;29.20;;;9.10;41.70;;;;;;5069281;28;20475;-59
2022/03/31 06:05:14;;;;;;;76.20;32.10;;;9.10;41.90;;;;;;5068106;28;20483;-58
2022/03/31 06:07:41;;;;;;;74.83;31.27;;;9.10;41.90;;;;;;5067630;28;20481;-58
2022/03/31 06:10:09;;;;;;;70.80;28.93;;;9.10;41.60;;;;;;5058610;28;20469;-58
2022/03/31 06:12:37;;;;;;;78.57;30.83;;;9.20;41.60;;;;;;5059256;28;20461;-58
2022/03/31 06:15:06;;;;;;;74.67;32.27;;;9.20;41.50;;;;;;5057128;28;20749;-59
2022/03/31 06:17:33;;;;;;;74.37;29.17;;;9.20;41.50;;;;;;5059678;28;20504;-59
2022/03/31 06:20:00;;;;;;;76.23;30.60;;;9.20;41.30;;;;;;5066105;28;20461;-59
2022/03/31 06:22:27;;;;;;;73.07;31.50;;;9.20;41.40;;;;;;5057415;28;20467;-58
2022/03/31 06:24:54;;;;;;;80.97;34.67;;;9.30;41.30;;;;;;5056224;28;20473;-59
2022/03/31 06:27:21;;;;;;;73.53;31.40;;;9.20;41.60;;;;;;5059697;28;20489;-58
2022/03/31 06:29:49;;;;;;;75.73;31.30;;;9.20;41.50;;;;;;5059225;28;20466;-55
2022/03/31 06:32:16;;;;;;;79.30;32.53;;;9.30;41.70;;;;;;5053062;28;20478;-58
2022/03/31 06:34:43;;;;;;;79.47;32.97;;;9.30;41.50;;;;;;5063580;28;21098;-55
2022/03/31 06:37:10;;;;;;;78.90;34.03;;;9.30;41.60;;;;;;5066219;28;20491;-55
2022/03/31 06:39:37;;;;;;;73.97;32.60;;;9.30;41.50;;;;;;5063404;28;21437;-56
2022/03/31 06:42:05;;;;;;;71.63;30.13;;;9.30;41.60;;;;;;5063265;28;20473;-56
2022/03/31 06:44:32;;;;;;;74.30;31.93;;;9.30;41.80;;;;;;5067291;28;20473;-59
2022/03/31 06:47:00;;;;;;;77.10;31.13;;;9.30;41.80;;;;;;5066557;28;20488;-59
2022/03/31 06:49:26;;;;;;;76.17;31.97;;;9.30;41.80;;;;;;5061699;28;20469;-59
2022/03/31 06:51:53;;;;;;;77.37;31.23;;;9.30;42.10;;;;;;5064573;28;20461;-60
2022/03/31 06:54:20;;;;;;;80.43;33.07;;;9.30;41.80;;;;;;5066047;28;20561;-59
2022/03/31 06:56:49;;;;;;;72.67;32.07;;;9.30;41.80;;;;;;5061856;28;20469;-59
2022/03/31 06:59:16;;;;;;;77.17;31.43;;;9.40;41.80;;;;;;5064438;28;20547;-58
2022/03/31 07:01:42;;;;;;;77.73;30.20;;;9.40;41.90;;;;;;5063376;28;20485;-60
2022/03/31 07:04:11;;;;;;;79.97;33.53;;;9.40;42.00;;;;;;5065736;28;20469;-58
2022/03/31 07:06:37;;;;;;;69.47;30.23;;;9.50;42.10;;;;;;5065367;28;20476;-58
2022/03/31 07:09:04;;;;;;;67.17;29.27;;;9.50;42.10;;;;;;5061264;28;20468;-60
2022/03/31 07:11:31;;;;;;;71.30;31.23;;;9.60;41.90;;;;;;5063864;28;20472;-59
2022/03/31 07:14:01;;;;;;;66.47;28.40;;;9.60;41.80;;;;;;5064427;28;20468;-60
2022/03/31 07:16:28;;;;;;;67.20;29.67;;;9.70;41.80;;;;;;5062798;28;20495;-59
2022/03/31 07:18:54;;;;;;;70.57;29.93;;;9.70;41.70;;;;;;5062179;28;20512;-59
2022/03/31 07:21:24;;;;;;;64.77;27.87;;;9.70;41.60;;;;;;5064423;28;20464;-59
2022/03/31 07:23:51;;;;;;;66.17;27.43;;;9.70;41.50;;;;;;5059546;28;20496;-60
2022/03/31 07:26:18;;;;;;;68.43;28.63;;;9.80;41.50;;;;;;5061721;28;20462;-60
2022/03/31 07:28:45;;;;;;;66.97;26.27;;;9.80;41.50;;;;;;5062223;28;20481;-58
2022/03/31 07:31:11;;;;;;;65.70;27.37;;;9.80;41.20;;;;;;5057311;28;21823;-60
2022/03/31 07:33:38;;;;;;;68.50;28.90;;;9.90;41.40;;;;;;5056838;28;20461;-58
2022/03/31 07:36:07;;;;;;;62.73;26.90;;;9.90;41.40;;;;;;5064943;28;22108;-59
2022/03/31 07:38:35;;;;;;;66.37;27.23;;;9.90;41.40;;;;;;5064303;28;20884;-59
2022/03/31 07:41:02;;;;;;;68.03;28.40;;;10.00;41.30;;;;;;5061167;28;20473;-59
2022/03/31 07:43:29;;;;;;;68.23;27.53;;;10.00;41.30;;;;;;5060482;28;20473;-60
2022/03/31 07:45:55;;;;;;;61.63;24.07;;;10.10;41.10;;;;;;5065088;28;20459;-61
2022/03/31 07:48:22;;;;;;;63.17;27.70;;;10.10;41.00;;;;;;5063457;28;20586;-59
2022/03/31 07:50:49;;;;;;;63.40;26.40;;;10.20;40.80;;;;;;5061502;28;20462;-59
2022/03/31 07:53:17;;;;;;;67.00;26.03;;;10.20;40.50;;;;;;5063088;28;20472;-59
2022/03/31 07:55:45;;;;;;;61.70;24.40;;;10.20;40.30;;;;;;5062320;28;20461;-55
2022/03/31 07:58:12;;;;;;;63.10;27.10;;;10.20;40.30;;;;;;5064562;28;20479;-59
2022/03/31 08:00:38;;;;;;;63.20;27.20;;;10.20;40.00;;;;;;5062897;28;20480;-60
2022/03/31 08:03:05;;;;;;;64.50;27.50;;;10.30;39.90;;;;;;5061435;28;20462;-60
2022/03/31 08:05:37;;;;;;;67.93;27.20;;;10.30;40.10;;;;;;5064190;28;20453;-59
2022/03/31 08:08:04;;;;;;;72.63;28.63;;;10.30;40.00;;;;;;5064682;28;20496;-62
2022/03/31 08:10:31;;;;;;;68.30;28.80;;;10.30;40.20;;;;;;5058092;28;20892;-57
2022/03/31 08:12:59;;;;;;;67.60;27.87;;;10.30;40.10;;;;;;5063345;28;20472;-55
2022/03/31 08:15:26;;;;;;;67.67;31.03;;;10.30;40.00;;;;;;5059106;28;20461;-54
2022/03/31 08:17:53;;;;;;;67.97;28.73;;;10.40;40.00;;;;;;5058396;28;20528;-56
2022/03/31 08:20:21;;;;;;;69.80;28.93;;;10.40;40.00;;;;;;5061492;28;20477;-57
2022/03/31 08:22:48;;;;;;;68.23;28.67;;;10.40;39.90;;;;;;5062095;28;20550;-57
2022/03/31 08:25:17;;;;;;;68.50;26.60;;;10.50;39.80;;;;;;5063967;28;20461;-57
2022/03/31 08:27:43;;;;;;;74.63;29.60;;;10.50;39.60;;;;;;5061925;28;20500;-56
2022/03/31 08:30:16;;;;;;;72.27;30.53;;;10.50;39.60;;;;;;5063763;28;20480;-58
2022/03/31 08:32:46;;;;;;;66.73;28.33;;;10.50;39.70;;;;;;5058143;28;20469;-58
2022/03/31 08:35:13;;;;;;;67.87;27.93;;;10.50;39.70;;;;;;5061884;28;20475;-59
2022/03/31 08:37:41;;;;;;;68.23;28.60;;;10.50;39.80;;;;;;5063043;28;20480;-57
2022/03/31 08:40:11;;;;;;;68.53;29.70;;;10.50;39.60;;;;;;5061943;28;20558;-58
2022/03/31 08:42:38;;;;;;;65.30;27.10;;;10.50;39.60;;;;;;5061885;28;20561;-58
2022/03/31 08:45:07;;;;;;;77.70;31.13;;;10.50;39.60;;;;;;5061650;28;20465;-57
2022/03/31 08:47:38;;;;;;;75.80;27.80;;;10.50;39.60;;;;;;5064484;28;20493;-57
2022/03/31 08:50:05;;;;;;;65.07;27.10;;;10.50;39.70;;;;;;5057693;28;20461;-58
2022/03/31 08:52:32;;;;;;;71.23;28.23;;;10.50;39.60;;;;;;5063437;28;20551;-57
2022/03/31 08:54:58;;;;;;;69.90;28.70;;;10.50;39.60;;;;;;5063270;28;20465;-59
2022/03/31 08:57:25;;;;;;;70.10;29.70;;;10.60;39.60;;;;;;5062742;28;20480;-56
2022/03/31 08:59:52;;;;;;;70.20;29.87;;;10.60;39.60;;;;;;5058768;28;20457;-57
2022/03/31 09:02:23;;;;;;;70.50;27.70;;;10.70;39.70;;;;;;5058924;28;20488;-58
2022/03/31 09:05:02;;;;;;;67.83;28.10;;;10.70;39.60;;;;;;5062943;28;20468;-58
2022/03/31 09:07:29;;;;;;;61.33;25.93;;;10.70;39.30;;;;;;5061132;28;20485;-59
2022/03/31 09:09:56;;;;;;;66.43;26.27;;;10.80;39.10;;;;;;5063611;28;20528;-57
2022/03/31 09:12:26;;;;;;;71.17;28.80;;;10.90;39.10;;;;;;5060552;28;20457;-59
2022/03/31 09:14:54;;;;;;;67.50;28.13;;;11.00;39.00;;;;;;5058913;28;20548;-59
2022/03/31 09:17:21;;;;;;;63.70;26.30;;;11.00;39.00;;;;;;5060536;28;20538;-58
2022/03/31 09:19:56;;;;;;;64.03;26.27;;;11.10;38.60;;;;;;5063375;28;20469;-60
2022/03/31 09:22:24;;;;;;;64.90;26.20;;;11.10;38.50;;;;;;5062572;28;20495;-58
2022/03/31 09:25:01;;;;;;;65.03;26.13;;;11.20;38.40;;;;;;5061980;28;21037;-59
2022/03/31 09:27:27;;;;;;;64.43;26.83;;;11.20;38.50;;;;;;5060002;28;20546;-58
2022/03/31 09:30:05;;;;;;;64.20;27.73;;;11.30;38.20;;;;;;5058330;28;20469;-58
2022/03/31 09:32:32;;;;;;;71.07;28.03;;;11.30;38.30;;;;;;5060870;28;20471;-58
2022/03/31 09:35:06;;;;;;;65.50;27.70;;;11.30;38.20;;;;;;5060237;28;20464;-59
2022/03/31 09:37:34;;;;;;;62.37;25.37;;;11.30;38.10;;;;;;5055658;28;20478;-58
2022/03/31 09:40:00;;;;;;;63.13;27.20;;;11.30;38.10;;;;;;5053890;28;20466;-61
2022/03/31 09:42:28;;;;;;;64.57;27.23;;;11.30;37.70;;;;;;5058189;28;20545;-58
2022/03/31 09:44:59;;;;;;;70.00;29.43;;;11.40;37.70;;;;;;5060263;28;20466;-57
2022/03/31 09:47:28;;;;;;;67.13;27.60;;;11.30;37.70;;;;;;5062012;28;20488;-57
2022/03/31 09:49:55;;;;;;;63.73;25.10;;;11.40;37.70;;;;;;5063426;28;20463;-59
2022/03/31 09:52:22;;;;;;;66.00;26.73;;;11.30;37.60;;;;;;5058148;28;20469;-57
2022/03/31 09:54:51;;;;;;;67.10;25.50;;;11.40;37.80;;;;;;5065225;28;20460;-58
2022/03/31 09:57:22;;;;;;;65.20;26.57;;;11.40;37.90;;;;;;5061398;28;20484;-55
2022/03/31 09:59:52;;;;;;;60.13;24.77;;;11.50;38.00;;;;;;5054581;28;20457;-60
2022/03/31 10:02:21;;;;;;;63.30;25.70;;;11.60;37.40;;;;;;5050889;28;20469;-57
2022/03/31 10:04:48;;;;;;;62.27;26.37;;;11.60;37.10;;;;;;5053999;28;20518;-57
2022/03/31 10:07:16;;;;;;;63.53;27.53;;;11.60;37.00;;;;;;5055498;28;20535;-57
2022/03/31 10:09:44;;;;;;;64.33;25.13;;;11.60;37.00;;;;;;5059874;28;20554;-56
2022/03/31 10:12:21;;;;;;;65.97;26.70;;;11.60;37.00;;;;;;5058850;28;20514;-55
2022/03/31 10:14:53;;;;;;;60.40;23.10;;;11.60;36.80;;;;;;5054434;28;20486;-55
2022/03/31 10:17:26;;;;;;;60.73;24.27;;;11.60;36.70;;;;;;5051612;28;20474;-55
2022/03/31 10:19:53;;;;;;;61.17;23.23;;;11.60;36.80;;;;;;5053532;28;20472;-56
2022/03/31 10:25:08;;;;;;;61.00;23.33;;;11.60;36.40;;;;;;5056107;28;20607;-56
2022/03/31 10:27:38;;;;;;;59.30;24.00;;;11.60;36.40;;;;;;5054980;28;20481;-55
2022/03/31 10:30:12;;;;;;;58.57;23.40;;;11.60;36.20;;;;;;5058598;28;20469;-54
2022/03/31 10:32:50;;;;;;;58.63;23.10;;;11.60;36.30;;;;;;5059166;28;20886;-55
2022/03/31 10:35:26;;;;;;;59.83;23.87;;;11.60;36.10;;;;;;5053731;28;20453;-56
2022/03/31 10:37:54;;;;;;;61.03;24.80;;;11.60;36.10;;;;;;5058239;28;20483;-55
2022/03/31 10:40:32;;;;;;;57.33;23.87;;;11.60;36.10;;;;;;5061148;28;20519;-55
2022/03/31 10:43:01;;;;;;;60.13;24.33;;;11.70;36.40;;;;;;5060759;28;20471;-55
2022/03/31 10:45:36;;;;;;;56.53;22.97;;;11.70;36.30;;;;;;5064686;28;20457;-55
2022/03/31 10:48:17;;;;;;;59.37;23.53;;;11.70;36.30;;;;;;5059401;28;20600;-55
2022/03/31 10:50:44;;;;;;;56.97;22.77;;;11.80;36.30;;;;;;5059545;28;20471;-56
2022/03/31 10:53:11;;;;;;;58.37;23.57;;;11.90;36.40;;;;;;5063548;28;20465;-56
2022/03/31 10:55:40;;;;;;;58.37;24.20;;;11.90;36.10;;;;;;5063296;28;21116;-58
2022/03/31 10:58:20;;;;;;;56.77;22.90;;;11.90;35.90;;;;;;5062050;28;20479;-58
2022/03/31 11:00:49;;;;;;;55.90;22.40;;;11.90;36.10;;;;;;5058046;28;20480;-60
2022/03/31 11:03:18;;;;;;;58.30;23.67;;;11.90;35.80;;;;;;5059437;28;20514;-58
2022/03/31 11:05:45;;;;;;;58.00;22.57;;;11.90;36.40;;;;;;5063284;28;20461;-55
2022/03/31 11:08:17;;;;;;;58.80;23.83;;;12.00;35.70;;;;;;5062888;28;20496;-57
2022/03/31 11:10:46;;;;;;;54.97;23.10;;;12.00;35.60;;;;;;5059852;28;20974;-59
2022/03/31 11:13:15;;;;;;;59.00;23.30;;;12.10;35.50;;;;;;5062595;28;20523;-58
2022/03/31 11:15:44;;;;;;;60.23;24.47;;;12.10;35.60;;;;;;5060775;28;20966;-59
2022/03/31 11:18:11;;;;;;;63.07;25.47;;;12.10;35.50;;;;;;5058671;28;20560;-60
2022/03/31 11:20:38;;;;;;;61.10;25.20;;;12.10;35.50;;;;;;5056375;28;21072;-61
2022/03/31 11:23:07;;;;;;;59.00;22.20;;;12.10;35.40;;;;;;5062230;28;20472;-62
2022/03/31 11:25:34;;;;;;;61.00;23.67;;;12.00;35.40;;;;;;5060507;28;20562;-57
2022/03/31 11:28:08;;;;;;;59.10;23.80;;;12.00;35.40;;;;;;5063071;28;20485;-55
2022/03/31 11:30:37;;;;;;;57.10;24.87;;;11.90;35.40;;;;;;5062942;28;20472;-57
2022/03/31 11:33:04;;;;;;;64.00;26.50;;;11.90;35.40;;;;;;5061329;28;21092;-56
2022/03/31 11:35:31;;;;;;;61.00;24.00;;;11.90;35.60;;;;;;5063266;28;20985;-55
2022/03/31 11:38:00;;;;;;;57.27;23.57;;;11.80;35.60;;;;;;5067568;28;20493;-55
2022/03/31 11:40:29;;;;;;;55.70;24.33;;;11.80;35.70;;;;;;5072712;28;20465;-57
2022/03/31 11:42:58;;;;;;;57.27;22.37;;;11.80;36.00;;;;;;5074019;28;20492;-55
2022/03/31 11:45:28;;;;;;;62.93;24.17;;;11.80;36.00;;;;;;5069260;28;20496;-54
2022/03/31 11:47:57;;;;;;;58.07;23.50;;;11.80;35.90;;;;;;5060825;28;20497;-51
2022/03/31 11:50:26;;;;;;;62.27;23.63;;;11.80;35.90;;;;;;5057679;28;20478;-54
2022/03/31 11:52:53;;;;;;;58.10;24.00;;;11.80;35.80;;;;;;5056570;28;20468;-54
2022/03/31 11:55:21;;;;;;;58.10;23.60;;;11.90;35.90;;;;;;5063022;28;20461;-53
2022/03/31 11:57:55;;;;;;;55.53;20.50;;;11.90;35.60;;;;;;5062241;28;20522;-54
2022/03/31 12:00:24;;;;;;;61.70;24.77;;;11.90;35.70;;;;;;5061419;28;20544;-54
2022/03/31 12:03:13;;;;;;;57.50;24.77;;;11.90;35.80;;;;;;5062928;28;20480;-56
2022/03/31 12:05:40;;;;;;;55.00;22.47;;;12.00;36.00;;;;;;5058203;28;20898;-53
2022/03/31 12:08:07;;;;;;;55.13;22.00;;;12.00;35.80;;;;;;5060463;28;20511;-55
2022/03/31 12:10:34;;;;;;;56.83;23.03;;;12.00;35.70;;;;;;5062840;28;20465;-55
2022/03/31 12:13:02;;;;;;;55.80;22.50;;;12.00;35.60;;;;;;5058169;28;20466;-55
2022/03/31 12:15:30;;;;;;;53.40;21.77;;;12.10;35.70;;;;;;5064293;28;21046;-55
2022/03/31 12:18:03;;;;;;;56.13;23.37;;;12.10;35.50;;;;;;5057576;28;20576;-56
2022/03/31 12:20:33;;;;;;;62.80;22.80;;;12.20;35.10;;;;;;5058449;28;20465;-54
2022/03/31 12:23:00;;;;;;;55.53;22.57;;;12.20;35.10;;;;;;5059121;28;20483;-54
2022/03/31 12:25:33;;;;;;;54.00;23.67;;;12.30;35.20;;;;;;5057650;28;20472;-53
2022/03/31 12:28:03;;;;;;;56.83;23.57;;;12.40;35.30;;;;;;5061516;28;20477;-54
2022/03/31 12:30:39;;;;;;;52.73;21.77;;;12.50;35.30;;;;;;5062276;28;21025;-54
2022/03/31 12:33:20;;;;;;;55.90;21.13;;;12.80;35.10;;;;;;5058604;28;22722;-54
2022/03/31 12:36:01;;;;;;;58.23;23.43;;;13.10;34.60;;;;;;5058693;28;20785;-56
2022/03/31 12:38:39;;;;;;;54.10;20.40;;;13.40;33.70;;;;;;5061176;28;20477;-52
2022/03/31 12:41:25;;;;;;;52.27;20.87;;;13.50;33.20;;;;;;5062845;28;20479;-55
2022/03/31 12:44:03;;;;;;;58.30;24.90;;;13.70;32.90;;;;;;5054297;28;20978;-56
2022/03/31 12:46:33;;;;;;;54.10;22.63;;;14.10;32.10;;;;;;5059343;28;20460;-56
2022/03/31 12:49:07;;;;;;;54.30;21.50;;;14.40;31.70;;;;;;5061405;28;21009;-61
2022/03/31 12:51:46;;;;;;;56.03;22.13;;;14.50;29.20;;;;;;5063142;28;20469;-61
2022/03/31 12:54:27;;;;;;;55.50;21.70;;;14.60;29.20;;;;;;5055843;28;20469;-61
2022/03/31 12:56:57;;;;;;;54.30;22.10;;;14.80;29.00;;;;;;5058061;28;20491;-58